createdAt,value
2018-02-26T00:00:25.693Z,0
2018-02-26T00:01:06.130Z,0
2018-02-26T00:01:46.574Z,0
2018-02-26T00:02:26.957Z,0
2018-02-26T00:03:07.333Z,0
2018-02-26T00:03:47.940Z,0
2018-02-26T00:04:28.778Z,0
2018-02-26T00:05:09.093Z,0
2018-02-26T00:05:49.552Z,0
2018-02-26T00:06:29.917Z,0
2018-02-26T00:07:10.325Z,0
2018-02-26T00:07:50.778Z,0
2018-02-26T00:08:31.086Z,0
2018-02-26T00:09:11.509Z,0
2018-02-26T00:09:51.962Z,0
2018-02-26T00:10:32.402Z,0
2018-02-26T00:12:51.452Z,0
2018-02-26T00:13:33.927Z,0
2018-02-26T00:14:14.313Z,0
2018-02-26T00:18:24.605Z,0
2018-02-26T00:22:57.177Z,0
2018-02-26T00:23:41.368Z,0
2018-02-26T00:24:21.820Z,0
2018-02-26T00:25:02.162Z,0
2018-02-26T00:25:42.554Z,0
2018-02-26T00:26:22.972Z,0
2018-02-26T00:27:03.371Z,0
2018-02-26T00:27:43.792Z,0
2018-02-26T00:28:24.151Z,0
2018-02-26T00:29:04.585Z,0
2018-02-26T00:29:44.950Z,0
2018-02-26T00:30:25.339Z,0
2018-02-26T00:31:05.725Z,0
2018-02-26T00:31:46.162Z,0
2018-02-26T00:32:26.587Z,0
2018-02-26T00:33:06.985Z,0
2018-02-26T00:33:47.359Z,0
2018-02-26T00:34:27.817Z,0
2018-02-26T00:35:08.197Z,0
2018-02-26T00:35:48.590Z,0
2018-02-26T00:36:29.009Z,0
2018-02-26T00:37:09.373Z,0
2018-02-26T00:37:49.811Z,0
2018-02-26T00:38:30.194Z,0
2018-02-26T00:41:04.736Z,0
2018-02-26T00:43:42.990Z,0
2018-02-26T00:44:23.924Z,0
2018-02-26T00:45:04.316Z,0
2018-02-26T00:45:44.759Z,0
2018-02-26T00:46:25.349Z,0
2018-02-26T00:47:05.637Z,0
2018-02-26T00:47:46.074Z,0
2018-02-26T00:48:26.506Z,0
2018-02-26T00:49:06.905Z,0
2018-02-26T00:49:47.325Z,0
2018-02-26T00:50:27.773Z,0
2018-02-26T00:51:08.298Z,0
2018-02-26T00:51:48.859Z,0
2018-02-26T00:52:29.362Z,0
2018-02-26T00:53:09.664Z,0
2018-02-26T00:53:49.983Z,0
2018-02-26T00:54:30.381Z,0
2018-02-26T00:55:11.026Z,0
2018-02-26T00:55:51.146Z,0
2018-02-26T00:56:31.615Z,0
2018-02-26T00:57:11.987Z,0
2018-02-26T00:57:52.388Z,0
2018-02-26T00:58:32.816Z,0
2018-02-26T00:59:13.230Z,0
2018-02-26T00:59:53.576Z,0
2018-02-26T01:00:34.134Z,0
2018-02-26T01:01:14.462Z,0
2018-02-26T01:01:54.867Z,0
2018-02-26T01:02:35.347Z,0
2018-02-26T01:03:15.752Z,0
2018-02-26T01:03:56.139Z,0
2018-02-26T01:06:18.210Z,0
2018-02-26T01:07:57.043Z,0
2018-02-26T01:08:42.710Z,0
2018-02-26T01:09:23.081Z,0
2018-02-26T01:11:29.526Z,0
2018-02-26T01:12:18.398Z,0
2018-02-26T01:13:03.243Z,0
2018-02-26T01:13:44.409Z,0
2018-02-26T01:14:24.819Z,0
2018-02-26T01:15:05.222Z,0
2018-02-26T01:15:45.743Z,0
2018-02-26T01:16:26.083Z,0
2018-02-26T01:17:06.440Z,0
2018-02-26T01:17:46.846Z,0
2018-02-26T01:20:08.368Z,0
2018-02-26T01:20:53.071Z,0
2018-02-26T01:21:32.036Z,0
2018-02-26T01:22:12.435Z,0
2018-02-26T01:22:52.818Z,0
2018-02-26T01:23:33.236Z,0
2018-02-26T01:24:13.657Z,0
2018-02-26T01:24:54.057Z,0
2018-02-26T01:25:34.451Z,0
2018-02-26T01:26:14.941Z,0
2018-02-26T01:26:55.290Z,0
2018-02-26T01:27:35.665Z,0
2018-02-26T01:28:16.049Z,0
2018-02-26T01:28:56.449Z,0
2018-02-26T01:29:36.886Z,0
2018-02-26T01:30:17.317Z,0
2018-02-26T01:30:57.661Z,0
2018-02-26T01:31:38.090Z,0
2018-02-26T01:32:18.737Z,0
2018-02-26T01:35:59.788Z,0
2018-02-26T01:36:49.177Z,0
2018-02-26T01:39:44.804Z,0
2018-02-26T01:40:33.267Z,0
2018-02-26T01:41:22.282Z,0
2018-02-26T01:42:11.271Z,0
2018-02-26T01:43:01.780Z,0
2018-02-26T01:43:50.717Z,0
2018-02-26T01:44:45.213Z,0
2018-02-26T01:45:36.464Z,0
2018-02-26T01:46:26.585Z,0
2018-02-26T01:51:14.661Z,0
2018-02-26T01:59:38.940Z,0
2018-02-26T02:01:37.941Z,0
2018-02-26T02:04:22.525Z,0
2018-02-26T02:05:12.665Z,0
2018-02-26T02:06:51.716Z,0
2018-02-26T02:07:42.608Z,0
2018-02-26T02:08:33.747Z,0
2018-02-26T02:09:22.217Z,0
2018-02-26T02:10:12.733Z,0
2018-02-26T02:11:53.168Z,0
2018-02-26T02:12:43.591Z,0
2018-02-26T02:21:52.063Z,0
2018-02-26T02:26:15.462Z,0
2018-02-26T02:30:03.785Z,0
2018-02-26T02:32:35.264Z,0
2018-02-26T02:34:13.285Z,0
2018-02-26T02:38:08.315Z,0
2018-02-26T02:38:53.318Z,0
2018-02-26T02:42:57.098Z,0
2018-02-26T02:43:48.520Z,0
2018-02-26T02:45:29.405Z,0
2018-02-26T02:47:09.056Z,0
2018-02-26T02:47:58.007Z,0
2018-02-26T02:55:52.384Z,0
2018-02-26T02:56:43.440Z,0
2018-02-26T02:57:33.953Z,0
2018-02-26T03:00:05.983Z,0
2018-02-26T03:00:53.898Z,0
2018-02-26T03:08:37.483Z,0
2018-02-26T03:10:16.198Z,0
2018-02-26T03:14:08.651Z,0
2018-02-26T03:15:48.107Z,0
2018-02-26T03:24:15.706Z,0
2018-02-26T03:27:58.093Z,0
2018-02-26T03:30:03.942Z,0
2018-02-26T03:50:10.863Z,0
2018-02-26T03:52:41.369Z,0
2018-02-26T03:55:39.296Z,0
2018-02-26T03:58:44.554Z,0
2018-02-26T03:59:40.114Z,0
2018-02-26T05:08:44.881Z,0
2018-02-26T05:11:33.450Z,0
2018-02-26T05:13:26.666Z,0
2018-02-26T05:14:07.587Z,0
2018-02-26T05:14:48.632Z,0
2018-02-26T05:15:29.035Z,0
2018-02-26T05:16:10.518Z,0
2018-02-26T05:16:51.390Z,0
2018-02-26T05:17:31.969Z,0
2018-02-26T05:18:12.474Z,0
2018-02-26T05:18:52.942Z,0
2018-02-26T05:19:33.521Z,0
2018-02-26T05:20:14.319Z,0
2018-02-26T05:20:54.518Z,0
2018-02-26T05:21:35.227Z,0
2018-02-26T05:22:15.495Z,0
2018-02-26T05:22:57.690Z,0
2018-02-26T05:23:38.754Z,0
2018-02-26T05:24:19.594Z,0
2018-02-26T05:25:00.082Z,0
2018-02-26T05:25:41.102Z,0
2018-02-26T05:26:21.608Z,0
2018-02-26T05:27:03.473Z,0
2018-02-26T05:27:46.866Z,0
2018-02-26T05:28:28.006Z,0
2018-02-26T05:29:09.335Z,0
2018-02-26T05:29:50.023Z,0
2018-02-26T05:30:31.856Z,0
2018-02-26T05:32:50.839Z,0
2018-02-26T05:33:31.274Z,0
2018-02-26T05:34:11.628Z,0
2018-02-26T05:34:52.067Z,0
2018-02-26T05:35:32.771Z,0
2018-02-26T05:36:13.156Z,0
2018-02-26T05:38:42.300Z,0
2018-02-26T05:39:22.711Z,0
2018-02-26T05:40:03.105Z,0
2018-02-26T05:40:43.456Z,0
2018-02-26T05:41:23.890Z,0
2018-02-26T05:42:04.251Z,0
2018-02-26T05:42:44.677Z,0
2018-02-26T05:43:25.188Z,0
2018-02-26T05:45:54.378Z,0
2018-02-26T05:46:34.644Z,0
2018-02-26T05:47:15.026Z,0
2018-02-26T05:47:55.493Z,0
2018-02-26T05:48:50.511Z,0
2018-02-26T05:49:30.877Z,0
2018-02-26T05:50:11.306Z,0
2018-02-26T05:50:51.664Z,0
2018-02-26T05:57:54.547Z,0
2018-02-26T06:00:07.996Z,0
2018-02-26T06:00:48.455Z,4
2018-02-26T06:03:01.699Z,0
2018-02-26T06:05:30.820Z,4
2018-02-26T06:06:11.251Z,4
2018-02-26T06:08:39.351Z,4
2018-02-26T06:09:19.805Z,4
2018-02-26T06:10:00.196Z,4
2018-02-26T06:10:41.968Z,4
2018-02-26T06:15:57.883Z,8
2018-02-26T06:22:05.366Z,12
2018-02-26T06:27:22.725Z,32
2018-02-26T06:28:19.478Z,32
2018-02-26T06:29:00.137Z,40
2018-02-26T06:29:41.044Z,44
2018-02-26T06:30:22.472Z,52
2018-02-26T06:31:03.797Z,60
2018-02-26T06:31:44.464Z,68
2018-02-26T06:32:27.384Z,72
2018-02-26T06:34:52.791Z,88
2018-02-26T06:35:55.960Z,96
2018-02-26T06:39:48.079Z,144
2018-02-26T06:40:28.580Z,164
2018-02-26T06:41:10.796Z,184
2018-02-26T06:41:51.816Z,216
2018-02-26T06:44:25.334Z,324
2018-02-26T06:46:35.137Z,356
2018-02-26T06:47:15.828Z,364
2018-02-26T06:49:44.469Z,412
2018-02-26T06:50:24.890Z,416
2018-02-26T06:55:48.872Z,628
2018-02-26T06:59:59.379Z,744
2018-02-26T07:00:42.224Z,716
2018-02-26T07:01:22.175Z,684
2018-02-26T07:02:18.699Z,656
2018-02-26T07:02:58.276Z,568
2018-02-26T07:06:33.110Z,528
2018-02-26T07:07:13.385Z,532
2018-02-26T07:07:54.013Z,528
2018-02-26T07:08:35.487Z,528
2018-02-26T07:10:49.886Z,524
2018-02-26T07:13:20.101Z,536
2018-02-26T07:14:00.075Z,548
2018-02-26T07:16:30.607Z,592
2018-02-26T07:18:43.959Z,684
2018-02-26T07:19:24.731Z,732
2018-02-26T07:20:06.460Z,772
2018-02-26T07:24:24.013Z,808
2018-02-26T07:25:05.177Z,772
2018-02-26T07:29:21.722Z,448
2018-02-26T07:30:02.527Z,404
2018-02-26T07:32:32.953Z,316
2018-02-26T07:33:12.676Z,320
2018-02-26T07:33:55.098Z,328
2018-02-26T07:34:34.354Z,336
2018-02-26T07:35:16.282Z,372
2018-02-26T07:37:47.552Z,464
2018-02-26T07:42:23.062Z,632
2018-02-26T07:43:04.999Z,636
2018-02-26T07:43:45.413Z,672
2018-02-26T07:47:29.568Z,976
2018-02-26T07:49:42.357Z,1348
2018-02-26T07:51:57.849Z,1564
2018-02-26T07:54:11.746Z,1844
2018-02-26T07:56:42.193Z,1572
2018-02-26T07:57:23.497Z,1608
2018-02-26T07:58:03.312Z,1912
2018-02-26T07:58:44.236Z,2380
2018-02-26T07:59:25.189Z,3216
2018-02-26T08:00:06.727Z,3460
2018-02-26T08:00:48.196Z,3612
2018-02-26T08:01:28.244Z,3500
2018-02-26T08:02:09.722Z,2164
2018-02-26T08:03:04.963Z,3088
2018-02-26T08:05:41.287Z,3584
2018-02-26T08:06:22.394Z,3528
2018-02-26T08:09:06.025Z,2492
2018-02-26T08:09:46.968Z,2000
2018-02-26T08:12:01.530Z,2260
2018-02-26T08:12:42.892Z,2264
2018-02-26T08:13:24.088Z,2216
2018-02-26T08:14:05.032Z,2176
2018-02-26T08:14:47.044Z,2176
2018-02-26T08:18:04.032Z,2120
2018-02-26T08:19:00.180Z,2100
2018-02-26T08:19:56.028Z,2088
2018-02-26T08:23:52.992Z,2036
2018-02-26T09:01:44.303Z,1732
2018-02-26T09:09:06.321Z,1648
2018-02-26T09:18:19.568Z,1776
2018-02-26T09:19:15.975Z,1480
2018-02-26T09:19:57.158Z,1520
2018-02-26T09:20:37.654Z,1668
2018-02-26T09:21:32.994Z,1628
2018-02-26T09:27:30.990Z,1856
2018-02-26T09:31:32.800Z,1872
2018-02-26T09:32:13.248Z,2148
2018-02-26T09:32:56.537Z,2668
2018-02-26T09:33:36.982Z,2452
2018-02-26T09:39:10.859Z,2584
2018-02-26T09:39:48.756Z,2508
2018-02-26T09:40:29.525Z,2512
2018-02-26T09:46:11.136Z,2144
2018-02-26T09:48:27.834Z,1784
2018-02-26T09:49:08.269Z,1500
2018-02-26T09:51:44.796Z,2108
2018-02-26T09:52:25.591Z,1692
2018-02-26T09:53:07.503Z,1688
2018-02-26T09:53:53.414Z,1836
2018-02-26T09:54:34.940Z,1720
2018-02-26T09:55:17.941Z,1760
2018-02-26T09:55:58.945Z,1740
2018-02-26T09:56:40.693Z,1768
2018-02-26T10:01:18.808Z,2232
2018-02-26T10:05:49.475Z,2408
2018-02-26T10:45:55.671Z,1516
2018-02-26T10:48:09.060Z,1344
2018-02-26T11:04:37.197Z,1648
2018-02-26T11:05:20.000Z,1556
2018-02-26T11:06:00.676Z,1596
2018-02-26T11:06:41.320Z,1464
2018-02-26T11:08:30.963Z,1444
2018-02-26T11:09:11.421Z,1528
2018-02-26T11:09:51.894Z,1564
2018-02-26T11:10:33.848Z,1856
2018-02-26T11:11:14.357Z,1840
2018-02-26T11:11:55.024Z,1692
2018-02-26T11:12:35.479Z,1572
2018-02-26T11:25:23.672Z,1688
2018-02-26T11:26:04.131Z,1700
2018-02-26T11:26:44.820Z,1712
2018-02-26T11:27:26.413Z,1836
2018-02-26T11:28:06.154Z,1996
2018-02-26T11:28:46.641Z,2176
2018-02-26T11:29:28.245Z,2304
2018-02-26T11:30:10.503Z,2092
2018-02-26T11:30:51.439Z,2260
2018-02-26T11:31:31.979Z,2168
2018-02-26T11:32:13.396Z,2188
2018-02-26T11:32:54.943Z,2152
2018-02-26T11:33:35.560Z,2248
2018-02-26T11:34:16.064Z,2384
2018-02-26T11:34:57.271Z,2572
2018-02-26T11:35:44.258Z,2228
2018-02-26T11:37:46.961Z,1928
2018-02-26T11:38:28.171Z,1864
2018-02-26T11:39:08.955Z,1836
2018-02-26T11:39:49.042Z,1420
2018-02-26T11:40:29.699Z,1540
2018-02-26T11:41:11.325Z,1632
2018-02-26T11:41:52.728Z,1336
2018-02-26T11:42:33.565Z,1264
2018-02-26T11:43:15.594Z,1116
2018-02-26T11:43:56.779Z,1148
2018-02-26T11:44:38.219Z,1200
2018-02-26T11:45:19.050Z,1260
2018-02-26T11:45:59.593Z,1368
2018-02-26T11:46:41.355Z,1484
2018-02-26T11:47:23.122Z,1592
2018-02-26T11:48:03.636Z,2084
2018-02-26T11:48:45.314Z,2248
2018-02-26T11:49:27.165Z,2244
2018-02-26T11:50:07.302Z,2284
2018-02-26T11:50:48.357Z,2184
2018-02-26T11:51:29.478Z,2308
2018-02-26T11:52:09.974Z,2212
2018-02-26T11:52:50.977Z,1928
2018-02-26T11:53:32.181Z,1536
2018-02-26T11:54:12.990Z,1784
2018-02-26T11:54:53.945Z,1380
2018-02-26T11:55:35.008Z,1364
2018-02-26T11:56:15.869Z,1352
2018-02-26T11:56:56.693Z,1344
2018-02-26T11:57:37.486Z,1324
2018-02-26T11:58:19.063Z,1332
2018-02-26T11:59:00.421Z,1288
2018-02-26T11:59:41.217Z,1204
2018-02-26T12:00:22.230Z,1160
2018-02-26T12:01:03.430Z,1144
2018-02-26T12:01:43.611Z,1152
2018-02-26T12:02:25.065Z,1152
2018-02-26T12:03:06.265Z,1164
2018-02-26T12:03:47.400Z,1188
2018-02-26T12:04:28.868Z,1128
2018-02-26T12:05:09.281Z,1088
2018-02-26T12:05:51.814Z,1056
2018-02-26T12:06:32.427Z,1036
2018-02-26T12:07:12.951Z,1056
2018-02-26T12:07:54.496Z,1108
2018-02-26T12:08:35.204Z,1128
2018-02-26T12:09:16.975Z,1076
2018-02-26T12:09:58.076Z,1004
2018-02-26T12:10:40.311Z,956
2018-02-26T12:11:21.063Z,936
2018-02-26T12:12:03.920Z,944
2018-02-26T12:12:44.442Z,968
2018-02-26T12:13:24.981Z,936
2018-02-26T12:14:06.087Z,936
2018-02-26T12:14:47.433Z,920
2018-02-26T12:15:28.084Z,884
2018-02-26T12:16:09.167Z,896
2018-02-26T12:16:50.104Z,948
2018-02-26T12:17:30.776Z,988
2018-02-26T12:18:11.792Z,1028
2018-02-26T12:18:52.391Z,1032
2018-02-26T12:19:33.307Z,1020
2018-02-26T12:20:13.871Z,1048
2018-02-26T12:20:55.130Z,1108
2018-02-26T12:21:36.505Z,1176
2018-02-26T12:22:16.801Z,1212
2018-02-26T12:22:59.548Z,1212
2018-02-26T12:26:49.261Z,1388
2018-02-26T12:27:29.791Z,1356
2018-02-26T12:28:11.619Z,1364
2018-02-26T12:28:51.838Z,1380
2018-02-26T12:29:35.259Z,1308
2018-02-26T12:30:16.286Z,1276
2018-02-26T12:32:28.030Z,1416
2018-02-26T12:33:12.064Z,1384
2018-02-26T12:33:56.424Z,1384
2018-02-26T12:34:37.885Z,1468
2018-02-26T12:35:20.658Z,1556
2018-02-26T12:36:01.250Z,1564
2018-02-26T12:36:42.043Z,1536
2018-02-26T12:37:24.336Z,1444
2018-02-26T12:38:07.167Z,1468
2018-02-26T12:38:48.709Z,1528
2018-02-26T12:39:28.665Z,1488
2018-02-26T12:40:09.985Z,1540
2018-02-26T12:40:51.843Z,1488
2018-02-26T12:41:34.300Z,1484
2018-02-26T12:42:17.252Z,1464
2018-02-26T12:42:57.398Z,1416
2018-02-26T12:43:39.368Z,1400
2018-02-26T12:44:20.189Z,1352
2018-02-26T12:45:00.813Z,1300
2018-02-26T12:45:41.624Z,1240
2018-02-26T12:46:22.898Z,1224
2018-02-26T12:47:04.146Z,1232
2018-02-26T12:47:44.372Z,1220
2018-02-26T12:48:25.172Z,1232
2018-02-26T12:49:05.825Z,1308
2018-02-26T12:49:47.049Z,1344
2018-02-26T12:50:27.456Z,1368
2018-02-26T12:51:09.616Z,1396
2018-02-26T12:51:50.314Z,1332
2018-02-26T12:52:30.720Z,1268
2018-02-26T12:53:12.447Z,1224
2018-02-26T12:53:53.032Z,1196
2018-02-26T12:54:34.693Z,1208
2018-02-26T12:55:15.306Z,1204
2018-02-26T12:55:57.408Z,1140
2018-02-26T12:56:38.456Z,1036
2018-02-26T12:57:19.632Z,1020
2018-02-26T12:58:00.640Z,1028
2018-02-26T12:58:41.361Z,1028
2018-02-26T12:59:21.953Z,1048
2018-02-26T13:00:02.680Z,1072
2018-02-26T13:00:43.830Z,1060
2018-02-26T13:01:26.020Z,1016
2018-02-26T13:02:06.603Z,1008
2018-02-26T13:02:48.893Z,1072
2018-02-26T13:03:31.317Z,1036
2018-02-26T13:04:13.263Z,1024
2018-02-26T13:04:54.099Z,1076
2018-02-26T13:05:36.423Z,1108
2018-02-26T13:06:16.704Z,1268
2018-02-26T13:06:56.772Z,1224
2018-02-26T13:07:37.675Z,1224
2018-02-26T13:08:18.934Z,1236
2018-02-26T13:09:01.108Z,1288
2018-02-26T13:09:44.619Z,1380
2018-02-26T13:10:26.557Z,1652
2018-02-26T13:11:07.734Z,1584
2018-02-26T13:11:49.503Z,1320
2018-02-26T13:12:30.053Z,1240
2018-02-26T13:13:11.475Z,1236
2018-02-26T13:13:52.662Z,1268
2018-02-26T13:14:34.704Z,1352
2018-02-26T13:15:15.940Z,1428
2018-02-26T13:15:56.662Z,1352
2018-02-26T13:16:37.187Z,1376
2018-02-26T13:17:18.073Z,1344
2018-02-26T13:17:59.693Z,1224
2018-02-26T13:18:40.286Z,1232
2018-02-26T13:19:20.761Z,1280
2018-02-26T13:20:03.579Z,1112
2018-02-26T13:20:45.387Z,1048
2018-02-26T13:21:26.172Z,1052
2018-02-26T13:22:06.712Z,1140
2018-02-26T13:22:49.405Z,1340
2018-02-26T13:23:30.299Z,1004
2018-02-26T13:24:12.394Z,964
2018-02-26T13:24:53.067Z,1000
2018-02-26T13:25:34.276Z,964
2018-02-26T13:26:15.805Z,944
2018-02-26T13:26:56.619Z,956
2018-02-26T13:27:38.362Z,976
2018-02-26T13:28:18.192Z,992
2018-02-26T13:28:58.615Z,1020
2018-02-26T13:29:40.001Z,1040
2018-02-26T13:30:21.367Z,1004
2018-02-26T13:31:04.747Z,992
2018-02-26T13:31:45.999Z,1088
2018-02-26T13:32:27.077Z,1208
2018-02-26T13:33:08.828Z,1252
2018-02-26T13:33:50.480Z,1216
2018-02-26T13:34:31.071Z,1420
2018-02-26T13:35:13.386Z,1368
2018-02-26T13:35:54.051Z,1460
2018-02-26T13:36:34.703Z,1460
2018-02-26T13:37:17.291Z,1424
2018-02-26T13:37:57.675Z,1392
2018-02-26T13:38:38.171Z,1380
2018-02-26T13:39:19.814Z,1368
2018-02-26T13:40:01.059Z,1368
2018-02-26T13:40:41.704Z,1392
2018-02-26T13:41:22.035Z,1452
2018-02-26T13:42:06.369Z,1480
2018-02-26T13:42:47.600Z,1324
2018-02-26T13:43:28.345Z,1220
2018-02-26T13:44:09.381Z,1048
2018-02-26T13:44:50.172Z,964
2018-02-26T13:45:31.202Z,968
2018-02-26T13:55:27.329Z,980
2018-02-26T13:56:08.304Z,1004
2018-02-26T13:56:49.490Z,1036
2018-02-26T13:57:32.704Z,1064
2018-02-26T13:58:15.122Z,1068
2018-02-26T14:00:24.841Z,1076
2018-02-26T14:01:05.712Z,1076
2018-02-26T14:01:47.410Z,1072
2018-02-26T14:02:33.153Z,1052
2018-02-26T14:03:14.307Z,1008
2018-02-26T14:03:54.746Z,972
2018-02-26T14:04:37.409Z,948
2018-02-26T14:05:18.514Z,880
2018-02-26T14:05:59.942Z,852
2018-02-26T14:06:41.285Z,888
2018-02-26T14:07:23.778Z,900
2018-02-26T14:08:05.748Z,908
2018-02-26T14:08:46.627Z,892
2018-02-26T14:09:29.641Z,896
2018-02-26T14:10:10.138Z,892
2018-02-26T14:10:51.022Z,904
2018-02-26T14:11:32.452Z,928
2018-02-26T14:12:13.297Z,892
2018-02-26T14:12:53.749Z,868
2018-02-26T14:13:34.775Z,816
2018-02-26T14:14:16.212Z,804
2018-02-26T14:14:57.554Z,804
2018-02-26T14:15:38.435Z,804
2018-02-26T14:16:23.000Z,776
2018-02-26T14:17:04.710Z,772
2018-02-26T14:17:50.648Z,808
2018-02-26T14:18:34.321Z,828
2018-02-26T14:19:15.479Z,792
2018-02-26T14:19:57.673Z,804
2018-02-26T14:20:41.635Z,840
2018-02-26T14:21:23.197Z,884
2018-02-26T14:22:04.277Z,952
2018-02-26T14:22:47.762Z,924
2018-02-26T14:23:29.978Z,916
2018-02-26T14:24:11.980Z,924
2018-02-26T14:24:54.043Z,920
2018-02-26T14:25:34.973Z,904
2018-02-26T14:26:15.507Z,900
2018-02-26T14:26:58.155Z,936
2018-02-26T14:27:38.145Z,940
2018-02-26T14:28:19.671Z,928
2018-02-26T14:28:59.976Z,952
2018-02-26T14:29:40.699Z,968
2018-02-26T14:30:21.606Z,1000
2018-02-26T14:31:02.891Z,1024
2018-02-26T14:31:44.483Z,1092
2018-02-26T14:32:25.461Z,1088
2018-02-26T14:33:06.969Z,1028
2018-02-26T14:33:50.260Z,1036
2018-02-26T14:34:34.470Z,1040
2018-02-26T14:35:14.010Z,1048
2018-02-26T14:35:57.808Z,1004
2018-02-26T14:36:38.948Z,980
2018-02-26T14:37:20.660Z,1012
2018-02-26T14:38:02.456Z,948
2018-02-26T14:38:43.830Z,916
2018-02-26T14:39:27.118Z,932
2018-02-26T14:40:07.197Z,952
2018-02-26T14:40:48.763Z,980
2018-02-26T14:41:29.970Z,1136
2018-02-26T14:42:11.016Z,1328
2018-02-26T14:42:52.226Z,1404
2018-02-26T14:43:33.585Z,1228
2018-02-26T14:44:14.302Z,1096
2018-02-26T14:44:55.333Z,1028
2018-02-26T14:45:36.215Z,844
2018-02-26T14:46:17.227Z,852
2018-02-26T14:46:57.978Z,876
2018-02-26T14:47:39.035Z,884
2018-02-26T14:48:19.847Z,884
2018-02-26T14:49:00.999Z,900
2018-02-26T14:49:42.301Z,1068
2018-02-26T14:50:23.590Z,1048
2018-02-26T14:51:03.888Z,1004
2018-02-26T14:51:44.631Z,968
2018-02-26T14:52:25.879Z,960
2018-02-26T14:53:07.092Z,944
2018-02-26T14:53:52.475Z,920
2018-02-26T14:54:34.591Z,916
2018-02-26T14:55:16.355Z,924
2018-02-26T14:55:57.538Z,908
2018-02-26T14:56:38.797Z,932
2018-02-26T14:57:20.488Z,936
2018-02-26T14:58:02.404Z,948
2018-02-26T14:58:44.388Z,880
2018-02-26T14:59:25.978Z,816
2018-02-26T15:00:06.573Z,788
2018-02-26T15:00:47.969Z,796
2018-02-26T15:01:28.954Z,768
2018-02-26T15:02:09.597Z,748
2018-02-26T15:02:50.236Z,740
2018-02-26T15:03:30.614Z,740
2018-02-26T15:04:11.301Z,732
2018-02-26T15:04:51.970Z,772
2018-02-26T15:05:32.716Z,736
2018-02-26T15:06:13.196Z,712
2018-02-26T15:06:56.169Z,700
2018-02-26T15:07:37.675Z,708
2018-02-26T15:08:20.284Z,724
2018-02-26T15:09:01.961Z,728
2018-02-26T15:09:42.177Z,720
2018-02-26T15:10:25.732Z,720
2018-02-26T15:11:06.164Z,716
2018-02-26T15:11:48.754Z,740
2018-02-26T15:12:29.444Z,760
2018-02-26T15:13:10.437Z,780
2018-02-26T15:13:51.838Z,768
2018-02-26T15:14:32.047Z,748
2018-02-26T15:15:13.045Z,720
2018-02-26T15:15:54.228Z,688
2018-02-26T15:16:34.762Z,668
2018-02-26T15:17:16.320Z,660
2018-02-26T15:17:58.304Z,660
2018-02-26T15:18:46.799Z,668
2018-02-26T15:19:29.265Z,680
2018-02-26T15:20:11.257Z,696
2018-02-26T15:20:54.425Z,716
2018-02-26T15:21:34.904Z,740
2018-02-26T15:22:20.068Z,752
2018-02-26T15:23:02.500Z,908
2018-02-26T15:23:45.226Z,1400
2018-02-26T15:28:37.910Z,900
2018-02-26T15:29:18.205Z,896
2018-02-26T15:29:58.723Z,1168
2018-02-26T15:30:39.138Z,1588
2018-02-26T15:31:19.476Z,1952
2018-02-26T15:32:01.185Z,2016
2018-02-26T15:32:41.336Z,2228
2018-02-26T15:33:21.683Z,2432
2018-02-26T15:34:02.493Z,2560
2018-02-26T15:34:42.806Z,2452
2018-02-26T15:35:23.247Z,2276
2018-02-26T15:36:03.670Z,1892
2018-02-26T15:36:44.159Z,1800
2018-02-26T15:37:25.497Z,1540
2018-02-26T15:38:05.438Z,1028
2018-02-26T15:38:46.606Z,1212
2018-02-26T15:39:27.100Z,960
2018-02-26T15:40:07.515Z,692
2018-02-26T15:40:48.443Z,580
2018-02-26T15:41:28.779Z,540
2018-02-26T15:42:09.876Z,552
2018-02-26T15:42:50.198Z,532
2018-02-26T15:43:31.271Z,508
2018-02-26T15:44:12.771Z,524
2018-02-26T15:44:53.024Z,524
2018-02-26T15:45:33.740Z,516
2018-02-26T15:46:14.514Z,508
2018-02-26T15:46:54.955Z,516
2018-02-26T15:47:36.083Z,520
2018-02-26T15:48:17.462Z,516
2018-02-26T15:48:57.848Z,524
2018-02-26T15:49:39.364Z,524
2018-02-26T15:50:20.275Z,520
2018-02-26T15:51:00.627Z,516
2018-02-26T15:51:41.594Z,520
2018-02-26T15:52:22.035Z,520
2018-02-26T15:53:02.471Z,532
2018-02-26T15:53:42.823Z,528
2018-02-26T15:54:23.326Z,512
2018-02-26T15:55:03.988Z,516
2018-02-26T15:55:44.538Z,500
2018-02-26T15:56:24.767Z,492
2018-02-26T15:57:05.415Z,484
2018-02-26T15:57:45.812Z,464
2018-02-26T15:58:26.476Z,452
2018-02-26T15:59:06.938Z,456
2018-02-26T15:59:47.409Z,472
2018-02-26T16:00:28.672Z,496
2018-02-26T16:01:09.126Z,504
2018-02-26T16:01:50.049Z,508
2018-02-26T16:02:30.549Z,524
2018-02-26T16:03:11.320Z,556
2018-02-26T16:03:52.005Z,528
2018-02-26T16:04:32.203Z,492
2018-02-26T16:05:12.967Z,500
2018-02-26T16:05:53.369Z,508
2018-02-26T16:06:34.171Z,440
2018-02-26T16:07:14.456Z,340
2018-02-26T16:07:54.710Z,304
2018-02-26T16:08:35.323Z,280
2018-02-26T16:46:58.428Z,108
2018-02-26T16:47:38.773Z,108
2018-02-26T16:48:19.697Z,104
2018-02-26T16:49:00.675Z,100
2018-02-26T16:49:41.255Z,96
2018-02-26T16:50:21.717Z,92
2018-02-26T16:51:02.073Z,88
2018-02-26T16:51:42.558Z,84
2018-02-26T16:52:22.934Z,80
2018-02-26T16:53:04.174Z,80
2018-02-26T16:53:44.930Z,76
2018-02-26T16:54:25.707Z,72
2018-02-26T16:55:06.044Z,68
2018-02-26T16:55:46.459Z,68
2018-02-26T16:56:27.034Z,60
2018-02-26T16:57:07.422Z,60
2018-02-26T16:57:48.123Z,56
2018-02-26T16:58:28.520Z,56
2018-02-26T16:59:08.922Z,56
2018-02-26T16:59:49.372Z,56
2018-02-26T17:06:38.950Z,32
2018-02-26T17:07:19.348Z,32
2018-02-26T17:08:00.045Z,32
2018-02-26T17:08:40.529Z,28
2018-02-26T17:09:20.843Z,28
2018-02-26T17:10:01.852Z,28
2018-02-26T17:10:42.725Z,24
2018-02-26T17:11:23.361Z,24
2018-02-26T17:13:25.161Z,16
2018-02-26T17:14:06.522Z,16
2018-02-26T17:14:47.235Z,16
2018-02-26T17:15:28.003Z,16
2018-02-26T17:16:08.025Z,12
2018-02-26T17:16:48.671Z,12
2018-02-26T17:17:29.645Z,12
2018-02-26T17:18:10.009Z,8
2018-02-26T17:18:50.450Z,8
2018-02-26T17:19:31.000Z,8
2018-02-26T17:20:12.240Z,8
2018-02-26T17:20:52.759Z,8
2018-02-26T17:21:33.245Z,8
2018-02-26T17:22:14.573Z,4
2018-02-26T17:22:54.171Z,8
2018-02-26T17:23:34.706Z,4
2018-02-26T17:24:15.171Z,4
2018-02-26T17:24:55.569Z,4
2018-02-26T17:25:36.218Z,4
2018-02-26T17:26:16.802Z,4
2018-02-26T17:26:57.494Z,4
2018-02-26T17:27:37.884Z,4
2018-02-26T17:28:19.039Z,0
2018-02-26T17:28:59.638Z,0
2018-02-26T17:29:40.430Z,4
2018-02-26T17:30:22.469Z,4
2018-02-26T17:31:02.409Z,0
2018-02-26T17:31:43.613Z,0
2018-02-26T17:32:24.060Z,0
2018-02-26T17:33:04.671Z,0
2018-02-26T17:33:45.010Z,0
2018-02-26T17:34:25.519Z,0
2018-02-26T17:35:05.904Z,0
2018-02-26T17:35:48.396Z,0
2018-02-26T17:36:28.424Z,0
2018-02-26T17:37:09.515Z,0
2018-02-26T17:37:51.658Z,0
2018-02-26T17:38:34.138Z,0
2018-02-26T17:39:13.811Z,0
2018-02-26T17:39:54.100Z,0
2018-02-26T17:40:35.512Z,0
2018-02-26T17:41:15.450Z,0
2018-02-26T17:41:55.797Z,0
2018-02-26T17:42:36.308Z,0
2018-02-26T17:43:16.740Z,0
2018-02-26T17:43:57.156Z,0
2018-02-26T17:44:38.540Z,0
2018-02-26T17:45:19.292Z,0
2018-02-26T17:45:59.672Z,0
2018-02-26T17:46:40.607Z,0
2018-02-26T17:47:21.546Z,0
2018-02-26T17:48:01.928Z,0
2018-02-26T17:48:43.114Z,0
2018-02-26T17:49:23.484Z,0
2018-02-26T17:50:03.932Z,0
2018-02-26T17:50:44.504Z,0
2018-02-26T17:51:24.870Z,0
2018-02-26T17:52:05.312Z,0
2018-02-26T17:52:46.016Z,0
2018-02-26T17:53:26.529Z,0
2018-02-26T17:54:07.125Z,0
2018-02-26T17:54:47.753Z,0
2018-02-26T17:55:28.407Z,0
2018-02-26T17:56:08.826Z,0
2018-02-26T17:56:49.271Z,0
2018-02-26T17:57:29.716Z,0
2018-02-26T17:58:10.478Z,0
2018-02-26T17:58:51.282Z,0
2018-02-26T17:59:32.729Z,0
2018-02-26T18:00:15.338Z,0
2018-02-26T18:00:55.343Z,0
2018-02-26T18:01:35.717Z,0
2018-02-26T18:02:15.921Z,0
2018-02-26T18:02:56.341Z,0
2018-02-26T18:03:37.146Z,0
2018-02-26T18:04:17.654Z,0
2018-02-26T18:04:58.044Z,0
2018-02-26T18:05:39.357Z,0
2018-02-26T18:06:19.987Z,0
2018-02-26T18:07:00.813Z,0
2018-02-26T18:07:41.385Z,0
2018-02-26T18:08:21.782Z,0
2018-02-26T18:09:02.918Z,0
2018-02-26T18:09:43.144Z,0
2018-02-26T18:10:23.424Z,0
2018-02-26T18:11:04.173Z,0
2018-02-26T18:11:44.410Z,0
2018-02-26T18:12:25.234Z,0
2018-02-26T18:13:06.135Z,0